Time;durP1;ratioP1;P1;durP2;ratioP2;P2;SDS_P1;SDS_P2;PMS_P1;PMS_P2;Temp;Humidity;BMP_temperature;BMP_pressure;BME280_temperature;BME280_humidity;BME280_pressure;Samples;Min_cycle;Max_cycle;Signal;HPM_P1;HPM_P2
2023/10/10 00:01:17;;;;;;;7.90;3.60;;;15.00;99.90;;;;;;4822493;29;20090;-83
2023/10/10 00:03:45;;;;;;;9.55;3.00;;;15.00;99.90;;;;;;4826156;29;20070;-80
2023/10/10 00:06:13;;;;;;;6.88;3.35;;;15.00;99.90;;;;;;4796030;29;20114;-79
2023/10/10 00:08:41;;;;;;;5.72;3.45;;;15.00;99.90;;;;;;4792663;29;20051;-82
2023/10/10 00:11:14;;;;;;;9.38;3.67;;;15.00;99.90;;;;;;4823216;29;20137;-80
2023/10/10 00:13:46;;;;;;;8.40;3.23;;;15.00;99.90;;;;;;4826149;29;20071;-84
2023/10/10 00:16:25;;;;;;;8.73;3.92;;;15.00;99.90;;;;;;4825871;29;20291;-78
2023/10/10 00:18:55;;;;;;;9.10;5.07;;;15.00;99.90;;;;;;4796748;29;20158;-79
2023/10/10 00:21:23;;;;;;;5.57;3.83;;;14.90;99.90;;;;;;4818240;29;20076;-80
2023/10/10 00:23:50;;;;;;;7.03;5.38;;;14.90;99.90;;;;;;4822407;29;20046;-82
2023/10/10 00:26:22;;;;;;;15.30;5.57;;;14.90;99.90;;;;;;4796921;29;20046;-81
2023/10/10 00:28:56;;;;;;;10.30;4.45;;;15.00;99.90;;;;;;4837713;29;20449;-82
2023/10/10 00:31:26;;;;;;;6.70;5.03;;;15.00;99.90;;;;;;4838446;29;20050;-80
2023/10/10 00:33:54;;;;;;;5.80;4.70;;;15.00;99.90;;;;;;4795705;29;20057;-80
2023/10/10 00:36:21;;;;;;;13.98;6.00;;;15.00;99.90;;;;;;4794621;29;20046;-79
2023/10/10 00:39:30;;;;;;;6.78;5.13;;;15.00;99.90;;;;;;4835152;29;20042;-79
2023/10/10 00:41:44;;;;;;;9.75;5.50;;;15.00;99.90;;;;;;4835761;29;20046;-78
2023/10/10 00:44:15;;;;;;;9.77;6.13;;;15.00;99.90;;;;;;4837469;29;20053;-78
2023/10/10 00:46:41;;;;;;;10.60;6.68;;;15.00;99.90;;;;;;4825977;29;20129;-79
2023/10/10 00:49:16;;;;;;;9.05;5.20;;;15.00;99.90;;;;;;4827010;29;20134;-80
2023/10/10 00:51:46;;;;;;;8.07;5.95;;;15.00;99.90;;;;;;4823343;29;20556;-79
2023/10/10 00:56:54;;;;;;;10.07;5.75;;;15.00;99.90;;;;;;4816041;29;20514;-82
2023/10/10 00:59:42;;;;;;;11.20;5.95;;;15.10;99.90;;;;;;4822526;29;20416;-78
2023/10/10 01:02:10;;;;;;;11.48;5.28;;;15.60;99.90;;;;;;4827770;29;20073;-79
2023/10/10 01:07:20;;;;;;;14.13;8.35;;;15.10;99.90;;;;;;4821295;29;20114;-80
2023/10/10 01:09:56;;;;;;;6.93;5.57;;;15.00;99.90;;;;;;4821106;29;20074;-75
2023/10/10 01:12:24;;;;;;;16.38;7.25;;;15.10;99.90;;;;;;4798454;29;20046;-80
2023/10/10 01:14:55;;;;;;;11.18;7.13;;;15.00;99.90;;;;;;4826414;29;20046;-78
2023/10/10 01:17:29;;;;;;;17.42;6.53;;;15.00;99.90;;;;;;4830045;29;20470;-78
2023/10/10 01:20:00;;;;;;;8.60;5.60;;;15.00;99.90;;;;;;4819852;29;20503;-78
2023/10/10 01:22:38;;;;;;;13.73;6.80;;;15.10;99.90;;;;;;4813637;29;20511;-79
2023/10/10 01:25:14;;;;;;;11.55;6.25;;;15.10;99.90;;;;;;4798237;29;20042;-81
2023/10/10 01:27:46;;;;;;;13.93;8.35;;;15.10;99.90;;;;;;4802723;29;20061;-79
2023/10/10 01:30:18;;;;;;;7.60;6.40;;;15.10;99.90;;;;;;4825544;29;20042;-82
2023/10/10 01:32:50;;;;;;;10.63;7.47;;;15.00;99.90;;;;;;4827973;29;20057;-82
2023/10/10 01:35:16;;;;;;;11.93;7.22;;;15.10;99.90;;;;;;4813902;29;20229;-83
2023/10/10 01:37:48;;;;;;;16.02;6.93;;;15.00;99.90;;;;;;4810465;29;20235;-81
2023/10/10 01:40:16;;;;;;;9.57;6.53;;;15.00;99.90;;;;;;4824782;29;20042;-79
2023/10/10 01:42:51;;;;;;;7.82;6.13;;;15.10;99.90;;;;;;4828156;29;20038;-83
2023/10/10 01:45:19;;;;;;;10.63;5.97;;;15.10;99.90;;;;;;4813578;29;20057;-80
2023/10/10 01:47:56;;;;;;;10.55;6.03;;;14.90;99.90;;;;;;4794857;29;20073;-84
2023/10/10 01:50:35;;;;;;;9.32;5.82;;;15.00;99.90;;;;;;4825684;29;20103;-82
2023/10/10 01:53:00;;;;;;;9.45;5.80;;;15.10;99.90;;;;;;4813332;29;20042;-78
2023/10/10 01:55:26;;;;;;;11.38;7.10;;;15.10;99.90;;;;;;4827959;29;20393;-81
2023/10/10 01:58:01;;;;;;;10.00;5.68;;;15.10;99.90;;;;;;4832030;29;20480;-81
2023/10/10 02:00:27;;;;;;;8.10;5.43;;;15.10;99.90;;;;;;4825691;29;20174;-78
2023/10/10 02:02:56;;;;;;;8.55;5.93;;;15.10;99.90;;;;;;4812876;29;20424;-80
2023/10/10 02:08:09;;;;;;;9.13;5.70;;;15.00;99.90;;;;;;4839808;29;20047;-80
2023/10/10 02:10:36;;;;;;;8.30;5.83;;;15.00;99.90;;;;;;4826682;29;20047;-81
2023/10/10 02:13:06;;;;;;;8.05;5.22;;;15.10;99.90;;;;;;4797697;29;20304;-80
2023/10/10 02:15:36;;;;;;;8.93;5.63;;;15.00;99.90;;;;;;4810872;29;20061;-80
2023/10/10 02:18:45;;;;;;;9.02;5.55;;;15.00;99.90;;;;;;4823858;29;20047;-82
2023/10/10 02:20:51;;;;;;;6.82;4.93;;;15.00;99.90;;;;;;4810843;29;20058;-82
2023/10/10 02:23:34;;;;;;;6.05;4.82;;;15.00;99.90;;;;;;4824608;29;20054;-81
2023/10/10 02:26:43;;;;;;;9.05;5.00;;;15.00;99.90;;;;;;4805354;29;20300;-80
2023/10/10 02:29:05;;;;;;;8.68;4.90;;;15.00;99.90;;;;;;4835513;29;20472;-81
2023/10/10 02:31:32;;;;;;;6.93;5.15;;;15.00;99.90;;;;;;4841946;29;20057;-79
2023/10/10 02:34:03;;;;;;;7.68;4.70;;;15.00;99.90;;;;;;4824481;29;20043;-81
2023/10/10 02:36:34;;;;;;;10.57;5.60;;;15.00;99.90;;;;;;4825321;29;20053;-81
2023/10/10 02:41:48;;;;;;;11.65;5.25;;;14.90;99.90;;;;;;4840046;29;20102;-78
2023/10/10 02:44:26;;;;;;;6.30;4.97;;;14.90;99.90;;;;;;4824167;29;20303;-80
2023/10/10 02:46:55;;;;;;;12.38;4.97;;;14.90;99.90;;;;;;4841558;29;20496;-83
2023/10/10 02:49:30;;;;;;;6.22;5.45;;;14.90;99.90;;;;;;4819017;29;20670;-80
2023/10/10 02:51:57;;;;;;;8.48;5.65;;;14.90;99.90;;;;;;4804447;29;20056;-80
2023/10/10 02:54:33;;;;;;;7.38;6.43;;;14.90;99.90;;;;;;4835185;29;20042;-80
2023/10/10 02:59:50;;;;;;;8.65;6.13;;;14.80;99.90;;;;;;4840306;29;20085;-78
2023/10/10 03:02:21;;;;;;;11.90;6.47;;;14.80;99.90;;;;;;4824324;29;20138;-82
2023/10/10 03:07:30;;;;;;;7.97;6.53;;;14.80;99.90;;;;;;4842129;29;20063;-80
2023/10/10 03:12:29;;;;;;;11.65;7.72;;;14.80;99.90;;;;;;4811425;29;20057;-80
2023/10/10 03:15:02;;;;;;;7.95;6.05;;;14.80;99.90;;;;;;4796389;29;20678;-78
2023/10/10 03:17:43;;;;;;;10.00;6.28;;;14.80;99.90;;;;;;4826110;29;20081;-77
2023/10/10 03:23:10;;;;;;;10.95;7.35;;;14.80;99.90;;;;;;4819412;29;20122;-77
2023/10/10 03:25:52;;;;;;;10.45;7.43;;;14.90;99.90;;;;;;4811265;29;20100;-78
2023/10/10 03:28:29;;;;;;;10.73;6.68;;;14.80;99.90;;;;;;4819653;29;20054;-78
2023/10/10 03:31:10;;;;;;;10.52;7.05;;;14.80;99.90;;;;;;4838292;29;20047;-78
2023/10/10 05:25:29;;;;;;;27.90;22.60;;;14.90;99.90;;;;;;4841116;29;20460;-83
2023/10/10 05:27:58;;;;;;;29.35;17.25;;;14.90;99.90;;;;;;4798050;29;20042;-82
2023/10/10 05:30:25;;;;;;;20.33;17.27;;;14.90;99.90;;;;;;4798549;29;20046;-81
2023/10/10 05:33:00;;;;;;;24.73;17.67;;;14.90;99.90;;;;;;4805383;29;20041;-81
2023/10/10 05:35:30;;;;;;;24.02;17.15;;;14.90;99.90;;;;;;4806072;29;20377;-79
2023/10/10 05:37:56;;;;;;;28.10;18.88;;;15.00;99.90;;;;;;4501440;29;9999729;-79
2023/10/10 05:40:24;;;;;;;33.20;19.83;;;15.00;99.90;;;;;;4827668;29;20074;-78
2023/10/10 05:42:54;;;;;;;32.25;19.80;;;15.00;99.90;;;;;;4800499;29;20656;-81
2023/10/10 05:45:20;;;;;;;34.63;25.42;;;15.00;99.90;;;;;;4841438;29;20047;-80
2023/10/10 05:47:47;;;;;;;31.38;22.63;;;15.00;99.90;;;;;;4819403;29;20054;-80
2023/10/10 05:50:13;;;;;;;30.02;24.35;;;15.00;99.90;;;;;;4796179;29;20086;-80
2023/10/10 05:52:43;;;;;;;29.08;22.67;;;15.00;99.90;;;;;;4823990;29;20089;-79
2023/10/10 05:55:10;;;;;;;29.90;20.92;;;15.00;99.90;;;;;;4828326;29;20563;-81
2023/10/10 05:57:37;;;;;;;28.55;21.85;;;15.00;99.90;;;;;;4811972;29;20055;-80
2023/10/10 06:00:10;;;;;;;23.70;19.08;;;15.00;99.90;;;;;;4817582;29;20035;-79
2023/10/10 06:02:44;;;;;;;29.00;19.98;;;15.00;99.90;;;;;;4810977;29;20065;-81
2023/10/10 06:05:09;;;;;;;32.90;21.03;;;15.00;99.90;;;;;;4803753;29;20107;-80
2023/10/10 06:07:45;;;;;;;27.95;20.48;;;15.00;99.90;;;;;;4824144;29;20055;-80
2023/10/10 06:10:17;;;;;;;31.85;19.75;;;15.00;99.90;;;;;;4825663;29;20049;-78
2023/10/10 06:12:46;;;;;;;23.92;19.63;;;15.00;99.90;;;;;;4816764;29;20057;-81
2023/10/10 06:15:17;;;;;;;28.08;19.48;;;15.00;99.90;;;;;;4827596;29;20039;-82
2023/10/10 06:18:08;;;;;;;28.27;19.52;;;15.00;99.90;;;;;;4849186;29;20058;-85
2023/10/10 06:20:40;;;;;;;29.33;18.38;;;15.00;99.90;;;;;;4842501;29;20074;-83
2023/10/10 06:23:08;;;;;;;26.83;19.58;;;15.00;99.90;;;;;;4831204;29;20399;-82
2023/10/10 06:25:34;;;;;;;27.67;19.42;;;15.00;99.90;;;;;;4812747;29;20568;-78
2023/10/10 06:28:00;;;;;;;26.17;18.10;;;14.90;99.90;;;;;;4843715;29;20078;-79
2023/10/10 06:30:26;;;;;;;24.23;19.15;;;15.00;99.90;;;;;;4831471;29;20042;-81
2023/10/10 06:32:58;;;;;;;27.88;20.23;;;15.00;99.90;;;;;;4827938;29;20048;-85
2023/10/10 06:37:55;;;;;;;23.48;17.40;;;15.00;99.90;;;;;;4811929;29;20166;-77
2023/10/10 06:40:30;;;;;;;22.23;18.15;;;15.00;99.90;;;;;;4803658;29;20082;-80
2023/10/10 06:42:56;;;;;;;27.35;19.60;;;15.00;99.90;;;;;;4823974;29;20081;-78
2023/10/10 06:45:34;;;;;;;26.42;18.33;;;15.00;99.90;;;;;;4818960;29;20145;-81
2023/10/10 06:48:01;;;;;;;23.70;17.77;;;15.00;99.90;;;;;;4815627;29;20047;-81
2023/10/10 06:50:31;;;;;;;28.58;16.50;;;15.10;99.90;;;;;;4839191;29;20050;-81
2023/10/10 06:52:58;;;;;;;26.20;17.95;;;15.10;99.90;;;;;;4842555;29;20055;-81
2023/10/10 06:55:24;;;;;;;28.38;18.30;;;15.10;99.90;;;;;;4843084;29;20117;-81
2023/10/10 06:57:59;;;;;;;23.60;17.83;;;15.10;99.90;;;;;;4809410;29;20500;-82
2023/10/10 07:00:45;;;;;;;21.20;18.45;;;15.10;99.90;;;;;;4839571;29;20047;-82
2023/10/10 07:03:18;;;;;;;22.73;16.55;;;15.10;99.90;;;;;;4803343;29;20398;-81
2023/10/10 07:05:48;;;;;;;30.90;18.50;;;15.10;99.90;;;;;;4812028;29;20078;-81
2023/10/10 07:08:19;;;;;;;20.60;16.58;;;15.20;99.90;;;;;;4797064;29;20050;-82
2023/10/10 07:10:45;;;;;;;22.95;16.83;;;15.20;99.90;;;;;;4809158;29;20555;-82
2023/10/10 07:13:14;;;;;;;23.63;17.27;;;15.20;99.90;;;;;;4839360;29;20082;-82
2023/10/10 07:15:41;;;;;;;24.40;17.75;;;15.20;99.90;;;;;;4840432;29;20047;-81
2023/10/10 07:18:22;;;;;;;24.67;16.52;;;15.20;99.90;;;;;;4795971;29;20423;-81
2023/10/10 07:21:04;;;;;;;31.30;18.42;;;15.20;99.90;;;;;;4808910;29;20503;-81
2023/10/10 07:26:19;;;;;;;24.20;17.75;;;15.30;99.90;;;;;;4839345;29;20134;-81
2023/10/10 07:28:48;;;;;;;25.10;17.23;;;15.30;99.90;;;;;;4825372;29;20099;-82
2023/10/10 07:31:18;;;;;;;23.98;17.90;;;16.30;99.90;;;;;;4826958;29;20068;-82
2023/10/10 07:34:03;;;;;;;50.95;38.10;;;15.30;99.90;;;;;;4819713;29;20531;-81
2023/10/10 07:36:33;;;;;;;31.27;22.23;;;15.30;99.90;;;;;;4820245;29;20081;-82
2023/10/10 07:39:32;;;;;;;33.22;21.20;;;15.30;99.90;;;;;;4842131;29;20079;-80
2023/10/10 07:41:52;;;;;;;43.42;24.15;;;15.40;99.90;;;;;;4808789;29;20063;-81
2023/10/10 07:44:22;;;;;;;36.05;24.92;;;15.30;99.90;;;;;;4839117;29;20051;-80
2023/10/10 07:47:25;;;;;;;44.20;26.70;;;15.40;99.90;;;;;;4824939;29;20463;-81
2023/10/10 07:49:40;;;;;;;39.53;26.52;;;15.40;99.90;;;;;;4810182;29;20054;-81
2023/10/10 07:52:06;;;;;;;44.10;27.73;;;15.50;99.90;;;;;;4837693;29;20106;-81
2023/10/10 07:54:43;;;;;;;48.05;27.05;;;15.50;99.90;;;;;;4839267;29;20115;-81
2023/10/10 07:57:17;;;;;;;48.30;31.23;;;15.50;99.90;;;;;;4841853;29;20050;-82
2023/10/10 07:59:44;;;;;;;43.33;29.33;;;15.60;99.90;;;;;;4793890;29;20526;-82
2023/10/10 08:02:24;;;;;;;44.55;30.00;;;15.60;99.90;;;;;;4808036;29;20047;-82
2023/10/10 08:04:55;;;;;;;47.63;29.75;;;15.70;99.90;;;;;;4825132;29;20611;-82
2023/10/10 08:07:23;;;;;;;54.63;32.08;;;15.70;99.90;;;;;;4841335;29;20078;-81
2023/10/10 08:09:49;;;;;;;48.85;32.05;;;15.70;99.90;;;;;;4808945;29;20050;-82
2023/10/10 08:12:16;;;;;;;49.78;33.33;;;15.80;99.90;;;;;;4839348;29;20095;-81
2023/10/10 08:14:43;;;;;;;51.20;34.13;;;15.80;99.90;;;;;;4809427;29;20047;-82
2023/10/10 08:17:25;;;;;;;46.58;33.45;;;15.90;99.90;;;;;;4795712;29;20115;-81
2023/10/10 08:19:51;;;;;;;50.17;31.80;;;15.90;99.90;;;;;;4792934;29;20158;-82
2023/10/10 08:22:27;;;;;;;47.53;32.95;;;16.00;99.90;;;;;;4822510;29;20134;-81
2023/10/10 08:24:52;;;;;;;45.22;31.95;;;16.00;99.90;;;;;;4825617;29;20119;-82
2023/10/10 08:27:18;;;;;;;43.83;30.88;;;16.00;99.90;;;;;;4840722;29;20046;-82
2023/10/10 08:29:45;;;;;;;46.03;32.25;;;16.10;99.90;;;;;;4840082;29;20069;-82
2023/10/10 08:32:12;;;;;;;45.38;30.50;;;16.10;99.90;;;;;;4838376;29;20510;-82
2023/10/10 08:34:42;;;;;;;48.30;31.75;;;16.10;99.90;;;;;;4807868;29;20089;-82
2023/10/10 08:37:11;;;;;;;45.60;32.88;;;16.10;99.90;;;;;;4841525;29;20046;-82
2023/10/10 08:39:39;;;;;;;46.42;30.90;;;16.20;99.90;;;;;;4825165;29;20042;-81
2023/10/10 08:42:10;;;;;;;43.63;31.25;;;16.20;99.90;;;;;;4837783;29;20123;-81
2023/10/10 08:44:38;;;;;;;48.20;32.75;;;16.20;99.90;;;;;;4838440;29;20520;-82
2023/10/10 08:47:15;;;;;;;42.92;30.63;;;16.30;99.90;;;;;;4810357;29;20090;-81
2023/10/10 08:49:42;;;;;;;48.50;32.47;;;16.30;99.90;;;;;;4809115;29;20054;-82
2023/10/10 08:52:08;;;;;;;44.88;31.38;;;16.40;99.90;;;;;;4822886;29;20047;-81
2023/10/10 08:54:35;;;;;;;47.72;33.25;;;16.40;99.90;;;;;;4792498;29;20047;-82
2023/10/10 08:57:02;;;;;;;41.10;31.60;;;16.50;99.90;;;;;;4809887;29;20121;-82
2023/10/10 08:59:29;;;;;;;46.53;33.55;;;16.50;99.90;;;;;;4810882;29;20061;-82
2023/10/10 09:02:07;;;;;;;45.38;32.92;;;16.50;99.90;;;;;;4822243;29;20047;-82
2023/10/10 09:04:33;;;;;;;45.72;33.42;;;16.60;99.90;;;;;;4807269;29;20053;-82
2023/10/10 09:07:08;;;;;;;48.83;33.78;;;16.60;99.90;;;;;;4825580;29;20535;-82
2023/10/10 09:09:35;;;;;;;50.53;34.20;;;16.60;99.90;;;;;;4810104;29;20573;-81
2023/10/10 09:12:09;;;;;;;44.00;35.38;;;16.70;99.90;;;;;;4822370;29;20039;-81
2023/10/10 09:14:42;;;;;;;49.72;35.92;;;16.70;99.90;;;;;;4837738;29;20111;-81
2023/10/10 09:17:32;;;;;;;52.35;36.67;;;16.70;99.90;;;;;;4824916;29;20069;-82
2023/10/10 09:19:58;;;;;;;52.17;36.60;;;16.70;99.90;;;;;;4807968;29;20051;-82
2023/10/10 09:22:43;;;;;;;54.10;37.88;;;16.70;99.90;;;;;;4792592;29;20130;-82
2023/10/10 09:25:27;;;;;;;53.67;36.75;;;16.70;99.90;;;;;;4811237;29;20053;-82
2023/10/10 09:28:00;;;;;;;54.08;36.78;;;16.80;99.90;;;;;;4794796;29;20050;-82
2023/10/10 09:30:33;;;;;;;54.83;37.42;;;16.80;99.90;;;;;;4840056;29;20050;-82
2023/10/10 09:33:13;;;;;;;52.25;37.88;;;16.80;99.90;;;;;;4828895;29;20095;-82
2023/10/10 09:35:40;;;;;;;57.03;37.60;;;16.90;99.90;;;;;;4797945;29;20065;-82
2023/10/10 09:38:12;;;;;;;57.78;37.75;;;16.90;99.90;;;;;;4825310;29;20615;-81
2023/10/10 09:40:40;;;;;;;53.58;36.95;;;17.00;99.90;;;;;;4840378;29;20050;-82
2023/10/10 09:43:12;;;;;;;61.03;39.50;;;17.00;99.90;;;;;;4828444;29;20524;-81
2023/10/10 09:45:52;;;;;;;58.40;37.00;;;17.00;99.90;;;;;;4827573;29;20051;-82
2023/10/10 09:48:28;;;;;;;52.65;35.40;;;17.10;99.90;;;;;;4841068;29;20492;-82
2023/10/10 09:52:47;;;;;;;49.85;33.00;;;17.10;99.90;;;;;;4826955;29;20100;-82
2023/10/10 09:54:15;;;;;;;50.85;34.05;;;17.10;99.90;;;;;;4819972;29;20054;-82
2023/10/10 09:56:50;;;;;;;49.30;33.78;;;17.20;99.90;;;;;;4827548;29;20043;-82
2023/10/10 09:59:19;;;;;;;49.60;33.30;;;17.20;99.90;;;;;;4824815;29;20076;-82
2023/10/10 10:01:59;;;;;;;51.08;35.42;;;17.20;99.90;;;;;;4810872;29;20055;-82
2023/10/10 10:04:28;;;;;;;43.58;32.50;;;17.40;99.90;;;;;;4798787;29;20122;-82
2023/10/10 10:06:54;;;;;;;51.22;34.38;;;18.30;99.90;;;;;;4825022;29;20102;-82
2023/10/10 10:09:31;;;;;;;46.05;33.42;;;17.40;99.90;;;;;;4825159;29;20046;-82
2023/10/10 10:12:29;;;;;;;51.53;33.47;;;18.20;99.90;;;;;;4812679;29;20058;-81
2023/10/10 10:15:18;;;;;;;47.47;32.63;;;17.40;99.90;;;;;;4825530;29;20465;-82
2023/10/10 10:18:13;;;;;;;48.63;33.35;;;17.40;99.90;;;;;;4825570;29;20059;-81
2023/10/10 10:23:27;;;;;;;44.08;30.90;;;17.50;99.90;;;;;;4840028;29;20054;-81
2023/10/10 10:25:55;;;;;;;47.25;32.63;;;18.20;99.90;;;;;;4827372;29;20131;-82
2023/10/10 10:28:28;;;;;;;51.78;32.13;;;17.60;99.90;;;;;;4827551;29;20567;-82
2023/10/10 10:30:54;;;;;;;44.42;30.58;;;18.70;99.90;;;;;;4795489;29;20077;-82
2023/10/10 10:33:24;;;;;;;41.53;29.88;;;17.80;99.90;;;;;;4809255;29;20080;-82
2023/10/10 10:36:14;;;;;;;41.22;29.75;;;18.20;99.90;;;;;;4825288;29;20133;-82
2023/10/10 10:38:53;;;;;;;44.53;29.00;;;18.00;99.90;;;;;;4811661;29;20066;-82
2023/10/10 10:41:42;;;;;;;46.03;30.58;;;18.00;99.90;;;;;;4810196;29;20167;-82
2023/10/10 10:44:09;;;;;;;39.67;28.02;;;18.10;99.90;;;;;;4805271;29;20419;-82
2023/10/10 10:46:40;;;;;;;42.58;29.90;;;18.20;99.90;;;;;;4820001;29;20054;-82
2023/10/10 10:49:12;;;;;;;44.17;29.45;;;17.80;99.90;;;;;;4816133;29;20055;-82
2023/10/10 10:51:44;;;;;;;41.85;28.40;;;18.30;99.90;;;;;;4816390;29;20043;-82
2023/10/10 10:54:35;;;;;;;49.45;30.52;;;18.40;99.90;;;;;;4815717;29;20496;-82
2023/10/10 10:57:02;;;;;;;42.30;28.95;;;18.40;99.90;;;;;;4846632;29;20095;-83
2023/10/10 10:59:35;;;;;;;46.22;30.98;;;18.60;99.90;;;;;;4839506;29;20087;-82
2023/10/10 11:02:12;;;;;;;44.38;30.08;;;18.30;99.90;;;;;;4826314;29;20061;-82
2023/10/10 11:07:07;;;;;;;37.20;27.02;;;18.90;99.90;;;;;;4839888;29;20522;-81
2023/10/10 11:09:33;;;;;;;42.28;30.20;;;18.20;99.90;;;;;;4823707;29;20043;-82
2023/10/10 11:12:04;;;;;;;38.58;27.63;;;18.30;99.90;;;;;;4812101;29;20062;-81
2023/10/10 11:14:34;;;;;;;40.13;28.92;;;18.30;99.90;;;;;;4812636;29;20486;-81
2023/10/10 11:17:17;;;;;;;39.83;28.80;;;18.30;99.90;;;;;;4836988;29;20090;-81
2023/10/10 11:19:43;;;;;;;41.40;28.75;;;18.40;99.90;;;;;;4840123;29;20141;-81
2023/10/10 11:24:57;;;;;;;36.58;26.05;;;18.50;99.90;;;;;;4839761;29;20054;-82
2023/10/10 11:27:29;;;;;;;39.22;27.25;;;18.70;99.90;;;;;;4808180;29;20042;-82
2023/10/10 11:30:00;;;;;;;33.00;24.75;;;18.70;99.90;;;;;;4840713;29;20043;-83
2023/10/10 11:32:45;;;;;;;39.58;27.05;;;18.80;99.90;;;;;;4812342;29;20066;-82
2023/10/10 11:35:25;;;;;;;41.17;28.08;;;18.80;99.90;;;;;;4823277;29;20125;-82
2023/10/10 11:38:15;;;;;;;37.13;26.42;;;18.90;99.90;;;;;;4824157;29;20054;-82
2023/10/10 11:40:43;;;;;;;37.25;24.88;;;19.00;99.90;;;;;;4818928;29;20892;-81
2023/10/10 11:43:11;;;;;;;34.63;25.83;;;19.20;99.90;;;;;;4839074;29;20385;-82
2023/10/10 11:45:41;;;;;;;35.70;25.73;;;19.20;99.90;;;;;;4823636;29;20047;-82
2023/10/10 11:48:14;;;;;;;36.50;26.00;;;19.30;99.90;;;;;;4815800;29;20141;-82
2023/10/10 11:50:56;;;;;;;37.42;25.00;;;19.30;99.90;;;;;;4838407;29;20054;-81
2023/10/10 11:53:27;;;;;;;36.00;25.60;;;19.50;99.90;;;;;;4826517;29;20050;-81
2023/10/10 11:56:07;;;;;;;33.58;26.92;;;19.50;99.90;;;;;;4839802;29;20077;-82
2023/10/10 11:58:43;;;;;;;38.30;24.35;;;19.50;99.90;;;;;;4807536;29;20066;-82
2023/10/10 12:01:47;;;;;;;35.60;24.50;;;19.40;99.90;;;;;;4825509;29;20555;-81
2023/10/10 12:04:20;;;;;;;33.60;24.77;;;19.40;99.90;;;;;;4808607;29;20055;-81
2023/10/10 12:06:49;;;;;;;32.88;22.60;;;19.50;99.90;;;;;;4838097;29;20053;-82
2023/10/10 12:09:19;;;;;;;38.88;24.17;;;19.60;99.90;;;;;;4811072;29;20042;-81
2023/10/10 12:11:45;;;;;;;32.28;22.05;;;19.60;99.90;;;;;;4811152;29;20050;-82
2023/10/10 12:14:18;;;;;;;32.20;22.50;;;19.90;99.90;;;;;;4842461;29;20043;-81
2023/10/10 12:16:50;;;;;;;30.42;20.20;;;20.00;99.90;;;;;;4818625;29;20046;-81
2023/10/10 12:19:16;;;;;;;33.08;20.42;;;20.00;99.90;;;;;;4795186;29;20070;-80
2023/10/10 12:21:51;;;;;;;27.25;18.75;;;20.10;99.90;;;;;;4840132;29;21088;-81
2023/10/10 12:24:17;;;;;;;30.10;18.52;;;20.10;99.90;;;;;;4843283;29;20424;-81
2023/10/10 12:26:42;;;;;;;21.73;17.02;;;20.20;99.90;;;;;;4825142;29;20054;-81
2023/10/10 12:29:11;;;;;;;25.50;17.15;;;20.20;99.90;;;;;;4792716;29;20434;-81
2023/10/10 12:31:36;;;;;;;25.45;16.35;;;20.50;99.90;;;;;;4822966;29;20126;-81
2023/10/10 12:34:02;;;;;;;22.73;16.10;;;20.20;99.90;;;;;;4810931;29;20522;-81
2023/10/10 12:36:32;;;;;;;27.13;16.73;;;20.20;99.90;;;;;;4825981;29;20058;-81
2023/10/10 12:38:59;;;;;;;24.25;15.95;;;20.20;99.90;;;;;;4824259;29;20078;-81
2023/10/10 12:41:26;;;;;;;30.67;19.73;;;20.20;99.90;;;;;;4822325;29;20049;-81
2023/10/10 12:43:52;;;;;;;25.10;17.77;;;20.20;99.90;;;;;;4823946;29;20054;-81
2023/10/10 12:46:20;;;;;;;26.70;17.00;;;20.10;99.90;;;;;;4841218;29;20050;-81
2023/10/10 12:48:49;;;;;;;23.95;17.98;;;20.00;99.90;;;;;;4794334;29;20046;-82
2023/10/10 12:51:14;;;;;;;26.30;17.77;;;20.00;99.90;;;;;;4838310;29;20047;-81
2023/10/10 12:53:40;;;;;;;25.73;18.67;;;19.90;99.90;;;;;;4838983;29;20050;-81
2023/10/10 12:56:16;;;;;;;27.55;18.98;;;19.80;99.90;;;;;;4809575;29;20050;-81
2023/10/10 12:58:43;;;;;;;31.40;17.80;;;19.70;99.90;;;;;;4812368;29;20043;-81
2023/10/10 13:01:22;;;;;;;27.48;17.23;;;19.90;99.90;;;;;;4838008;29;20108;-81
2023/10/10 13:03:48;;;;;;;27.77;17.98;;;19.70;99.90;;;;;;4811555;29;20166;-81
2023/10/10 13:06:14;;;;;;;25.73;18.75;;;19.70;99.90;;;;;;4829554;29;20086;-80
2023/10/10 13:11:20;;;;;;;26.73;18.42;;;19.80;99.90;;;;;;4821426;29;20054;-80
2023/10/10 13:13:51;;;;;;;26.42;18.55;;;19.80;99.90;;;;;;4813648;29;20126;-81
2023/10/10 13:19:06;;;;;;;31.25;19.23;;;19.70;99.90;;;;;;4823558;29;20079;-81
2023/10/10 13:21:35;;;;;;;28.75;18.67;;;19.70;99.90;;;;;;4841083;29;20062;-81
2023/10/10 13:24:00;;;;;;;29.63;19.10;;;19.60;99.90;;;;;;4843256;29;20084;-81
2023/10/10 13:26:27;;;;;;;30.60;19.10;;;19.70;99.90;;;;;;4829000;29;20042;-81
2023/10/10 13:28:53;;;;;;;28.83;18.52;;;19.60;99.90;;;;;;4797795;29;20047;-82
2023/10/10 13:31:24;;;;;;;24.40;18.30;;;19.60;99.90;;;;;;4825058;29;20050;-81
2023/10/10 13:33:50;;;;;;;24.23;18.08;;;19.70;99.90;;;;;;4841667;29;20089;-81
2023/10/10 13:36:16;;;;;;;31.65;20.73;;;19.50;99.90;;;;;;4844213;29;20042;-81
2023/10/10 13:38:47;;;;;;;34.78;21.20;;;19.50;99.90;;;;;;4828065;29;20111;-81
2023/10/10 13:41:18;;;;;;;32.22;20.30;;;19.70;99.90;;;;;;4813757;29;20572;-81
2023/10/10 13:43:51;;;;;;;28.75;22.20;;;19.50;99.90;;;;;;4818350;29;20047;-81
2023/10/10 13:46:18;;;;;;;30.58;21.70;;;19.50;99.90;;;;;;4826690;29;20484;-81
2023/10/10 13:48:47;;;;;;;32.20;23.25;;;19.50;99.90;;;;;;4802340;29;20106;-81
2023/10/10 13:51:14;;;;;;;31.63;21.33;;;19.50;99.90;;;;;;4817314;29;20630;-82
2023/10/10 13:53:41;;;;;;;33.15;20.58;;;19.50;99.90;;;;;;4825407;29;20046;-81
2023/10/10 13:56:16;;;;;;;34.25;22.52;;;19.50;99.90;;;;;;4843223;29;20045;-81
2023/10/10 13:58:52;;;;;;;30.33;20.80;;;19.60;99.90;;;;;;4819950;29;20066;-81
2023/10/10 14:01:29;;;;;;;32.05;22.20;;;19.60;99.90;;;;;;4820932;29;20619;-81
2023/10/10 14:04:15;;;;;;;36.55;23.10;;;19.60;99.90;;;;;;4812994;29;20090;-82
2023/10/10 14:06:47;;;;;;;31.15;22.98;;;19.60;99.90;;;;;;4843331;29;20567;-81
2023/10/10 14:09:31;;;;;;;32.45;21.75;;;19.50;99.90;;;;;;4820689;29;20046;-81
2023/10/10 14:12:00;;;;;;;34.58;23.70;;;19.50;99.90;;;;;;4827394;29;20130;-82
2023/10/10 14:14:26;;;;;;;28.75;21.77;;;19.50;99.90;;;;;;4813422;29;20115;-82
2023/10/10 14:16:52;;;;;;;37.33;23.88;;;19.70;99.90;;;;;;4842193;29;20058;-81
2023/10/10 14:19:18;;;;;;;32.40;23.63;;;19.60;99.90;;;;;;4824501;29;20407;-81
2023/10/10 14:21:43;;;;;;;31.63;21.75;;;19.40;99.90;;;;;;4809342;29;20419;-80
2023/10/10 14:24:12;;;;;;;33.75;21.77;;;19.50;99.90;;;;;;4814422;29;20046;-82
2023/10/10 14:26:43;;;;;;;33.45;22.83;;;19.40;99.90;;;;;;4813232;29;20149;-81
2023/10/10 14:29:12;;;;;;;35.67;23.65;;;19.40;99.90;;;;;;4840424;29;20046;-81
2023/10/10 14:31:44;;;;;;;40.85;28.05;;;19.40;99.90;;;;;;4809427;29;20065;-81
2023/10/10 14:34:24;;;;;;;37.80;24.23;;;19.40;99.90;;;;;;4842649;29;20357;-81
2023/10/10 14:36:51;;;;;;;33.45;24.48;;;19.40;99.90;;;;;;4796792;29;20046;-81
2023/10/10 14:39:31;;;;;;;32.63;24.45;;;19.40;99.90;;;;;;4840503;29;20388;-81
2023/10/10 14:42:00;;;;;;;39.60;25.40;;;19.40;99.90;;;;;;4841290;29;20058;-81
2023/10/10 14:44:27;;;;;;;34.08;24.95;;;19.60;99.90;;;;;;4812997;29;20099;-81
2023/10/10 14:46:54;;;;;;;33.78;23.92;;;19.30;99.90;;;;;;4796550;29;20051;-81
2023/10/10 14:49:28;;;;;;;34.67;24.83;;;19.40;99.90;;;;;;4839787;29;20118;-81
2023/10/10 14:52:03;;;;;;;;;;;19.30;99.90;;;;;;4840649;29;20055;-81
2023/10/10 14:54:30;;;;;;;37.08;24.00;;;19.40;99.90;;;;;;4845052;29;20378;-81
2023/10/10 14:56:56;;;;;;;32.40;23.27;;;19.30;99.90;;;;;;4825453;29;20526;-81
2023/10/10 14:59:31;;;;;;;29.73;22.05;;;19.30;99.90;;;;;;4812312;29;20046;-81
2023/10/10 15:01:59;;;;;;;33.35;22.77;;;19.40;99.90;;;;;;4810288;29;20050;-81
2023/10/10 15:04:28;;;;;;;37.30;23.80;;;19.40;99.90;;;;;;4824150;29;20039;-81
2023/10/10 15:06:55;;;;;;;35.63;25.65;;;19.30;99.90;;;;;;4841086;29;20512;-81
2023/10/10 15:09:25;;;;;;;37.45;24.02;;;19.30;99.90;;;;;;4812038;29;20057;-81
2023/10/10 15:12:01;;;;;;;35.33;24.70;;;19.30;99.90;;;;;;4814098;29;20054;-82
2023/10/10 15:14:31;;;;;;;31.35;22.55;;;19.20;99.90;;;;;;4826746;29;20082;-81
2023/10/10 15:16:58;;;;;;;53.53;36.67;;;19.30;99.90;;;;;;4824959;29;20139;-82
2023/10/10 15:19:25;;;;;;;35.38;24.35;;;19.30;99.90;;;;;;4796917;29;20462;-81
2023/10/10 15:21:50;;;;;;;36.03;24.98;;;19.30;99.90;;;;;;4795838;29;20517;-81
2023/10/10 15:24:16;;;;;;;31.85;24.25;;;19.20;99.90;;;;;;4838025;29;20054;-81
2023/10/10 15:26:47;;;;;;;35.78;22.88;;;19.20;99.90;;;;;;4823995;29;20484;-81